createdAt,value
2023-02-14T00:00:16.010Z,89.83
2023-02-14T00:02:49.532Z,89.68
2023-02-14T00:05:02.462Z,89.73
2023-02-14T00:07:15.243Z,89.69
2023-02-14T00:09:27.863Z,89.75
2023-02-14T00:11:40.526Z,89.82
2023-02-14T00:14:11.661Z,89.73
2023-02-14T00:16:24.201Z,89.74
2023-02-14T00:18:55.262Z,89.88
2023-02-14T00:21:07.780Z,89.68
2023-02-14T00:23:20.284Z,89.83
2023-02-14T00:25:35.852Z,89.69
2023-02-14T00:27:48.403Z,89.64
2023-02-14T00:30:03.232Z,89.77
2023-02-14T00:32:15.878Z,89.64
2023-02-14T00:34:29.088Z,89.70
2023-02-14T00:36:42.148Z,89.67
2023-02-14T00:38:54.921Z,89.42
2023-02-14T00:41:07.496Z,89.51
2023-02-14T00:43:20.055Z,89.59
2023-02-14T00:45:32.766Z,89.57
2023-02-14T00:47:45.452Z,89.70
2023-02-14T00:50:02.919Z,89.68
2023-02-14T00:52:15.734Z,89.72
2023-02-14T00:54:28.259Z,89.91
2023-02-14T00:56:40.919Z,89.91
2023-02-14T00:58:53.485Z,89.74
2023-02-14T01:01:06.908Z,89.66
2023-02-14T01:03:19.830Z,89.96
2023-02-14T01:05:32.363Z,89.94
2023-02-14T01:07:44.915Z,89.88
2023-02-14T01:09:57.493Z,89.92
2023-02-14T01:12:10.035Z,90.02
2023-02-14T01:14:22.579Z,89.95
2023-02-14T01:16:36.627Z,89.96
2023-02-14T01:18:50.302Z,90.16
2023-02-14T01:21:19.060Z,89.97
2023-02-14T01:23:31.615Z,89.84
2023-02-14T01:25:44.179Z,89.88
2023-02-14T01:27:57.059Z,90.02
2023-02-14T01:30:10.779Z,89.90
2023-02-14T01:32:23.425Z,89.95
2023-02-14T01:34:36.106Z,89.84
2023-02-14T01:36:48.626Z,89.72
2023-02-14T01:39:05.192Z,89.85
2023-02-14T01:41:18.265Z,89.87
2023-02-14T01:43:30.776Z,89.93
2023-02-14T01:45:43.382Z,89.80
2023-02-14T01:47:56.932Z,89.87
2023-02-14T01:50:14.671Z,89.54
2023-02-14T01:52:37.359Z,89.54
2023-02-14T01:54:56.016Z,89.47
2023-02-14T01:57:12.433Z,89.24
2023-02-14T01:59:28.394Z,89.20
2023-02-14T02:01:41.664Z,88.91
2023-02-14T02:03:57.433Z,88.80
2023-02-14T02:06:15.227Z,88.84
2023-02-14T02:08:27.816Z,88.61
2023-02-14T02:10:40.418Z,88.53
2023-02-14T02:12:53.622Z,88.46
2023-02-14T02:15:07.660Z,88.32
2023-02-14T02:17:33.999Z,88.40
2023-02-14T02:20:24.251Z,88.30
2023-02-14T02:23:09.297Z,88.00
2023-02-14T02:25:47.534Z,88.09
2023-02-14T02:28:03.062Z,87.97
2023-02-14T02:30:43.592Z,87.76
2023-02-14T02:33:18.566Z,87.65
2023-02-14T02:35:51.672Z,87.49
2023-02-14T02:38:19.499Z,87.44
2023-02-14T02:41:00.305Z,87.35
2023-02-14T02:43:47.236Z,87.34
2023-02-14T02:46:24.109Z,87.27
2023-02-14T02:48:47.998Z,87.24
2023-02-14T02:51:26.128Z,87.07
2023-02-14T02:53:47.926Z,87.19
2023-02-14T02:56:27.272Z,87.05
2023-02-14T02:58:48.636Z,87.05
2023-02-14T03:01:06.681Z,87.09
2023-02-14T03:03:42.000Z,86.98
2023-02-14T03:05:54.616Z,86.92
2023-02-14T03:08:07.135Z,86.62
2023-02-14T03:10:21.320Z,86.54
2023-02-14T03:12:33.854Z,86.60
2023-02-14T03:15:21.545Z,86.25
2023-02-14T03:17:43.441Z,86.15
2023-02-14T03:20:23.075Z,86.24
2023-02-14T03:23:02.421Z,85.88
2023-02-14T03:25:33.924Z,86.20
2023-02-14T03:28:17.661Z,86.05
2023-02-14T03:30:52.704Z,86.02
2023-02-14T03:33:23.206Z,85.54
2023-02-14T03:36:01.939Z,85.42
2023-02-14T03:38:24.716Z,85.31
2023-02-14T03:40:49.414Z,85.30
2023-02-14T03:43:13.879Z,85.11
2023-02-14T03:45:32.292Z,85.23
2023-02-14T03:47:46.887Z,85.02
2023-02-14T03:50:05.474Z,85.02
2023-02-14T03:52:19.399Z,84.89
2023-02-14T03:54:34.181Z,84.90
2023-02-14T03:56:51.887Z,84.73
2023-02-14T03:59:13.552Z,84.76
2023-02-14T04:01:39.085Z,84.74
2023-02-14T04:03:55.841Z,84.47
2023-02-14T04:06:09.746Z,84.43
2023-02-14T04:08:27.942Z,84.47
2023-02-14T04:10:41.906Z,84.52
2023-02-14T04:12:54.618Z,84.36
2023-02-14T04:15:07.884Z,84.28
2023-02-14T04:17:39.242Z,84.12
2023-02-14T04:19:51.925Z,84.04
2023-02-14T04:22:04.530Z,84.01
2023-02-14T04:24:17.097Z,83.79
2023-02-14T04:26:29.690Z,83.79
2023-02-14T04:28:42.244Z,83.57
2023-02-14T04:30:54.857Z,83.66
2023-02-14T04:33:08.304Z,83.53
2023-02-14T04:35:20.914Z,83.61
2023-02-14T04:37:33.793Z,83.43
2023-02-14T04:39:46.478Z,83.62
2023-02-14T04:41:59.373Z,83.51
2023-02-14T04:44:11.921Z,83.52
2023-02-14T04:46:24.594Z,83.56
2023-02-14T04:48:37.157Z,83.46
2023-02-14T04:50:54.119Z,83.50
2023-02-14T04:53:06.712Z,83.42
2023-02-14T04:55:19.418Z,83.41
2023-02-14T04:57:31.993Z,83.55
2023-02-14T04:59:45.164Z,83.44
2023-02-14T05:01:57.803Z,83.50
2023-02-14T05:04:11.599Z,83.53
2023-02-14T05:06:24.106Z,83.45
2023-02-14T05:08:36.641Z,83.32
2023-02-14T05:10:49.349Z,83.40
2023-02-14T05:13:02.017Z,83.38
2023-02-14T05:15:14.644Z,83.36
2023-02-14T05:17:27.232Z,83.25
2023-02-14T05:19:39.794Z,83.20
2023-02-14T05:21:52.404Z,83.16
2023-02-14T05:24:05.135Z,83.31
2023-02-14T05:26:17.630Z,83.25
2023-02-14T05:28:30.399Z,83.24
2023-02-14T05:30:43.068Z,83.17
2023-02-14T05:32:55.710Z,83.15
2023-02-14T05:35:08.265Z,83.05
2023-02-14T05:37:20.884Z,83.02
2023-02-14T05:39:33.456Z,83.01
2023-02-14T05:41:46.067Z,83.26
2023-02-14T05:43:58.580Z,83.15
2023-02-14T05:46:11.212Z,83.10
2023-02-14T05:48:24.028Z,83.09
2023-02-14T05:50:36.649Z,83.31
2023-02-14T05:52:49.242Z,83.09
2023-02-14T05:55:01.861Z,83.26
2023-02-14T05:57:14.613Z,83.24
2023-02-14T05:59:27.140Z,83.35
2023-02-14T06:01:39.746Z,83.44
2023-02-14T06:03:52.336Z,83.39
2023-02-14T06:06:05.133Z,83.60
2023-02-14T06:08:17.745Z,83.46
2023-02-14T06:10:30.368Z,83.40
2023-02-14T06:12:42.914Z,83.12
2023-02-14T06:14:55.476Z,83.23
2023-02-14T06:17:08.807Z,83.14
2023-02-14T06:19:21.459Z,83.22
2023-02-14T06:21:33.996Z,83.47
2023-02-14T06:23:46.596Z,83.44
2023-02-14T06:25:59.103Z,83.39
2023-02-14T06:28:11.653Z,83.11
2023-02-14T06:30:25.651Z,82.98
2023-02-14T06:32:38.679Z,83.06
2023-02-14T06:34:51.366Z,83.33
2023-02-14T06:37:03.969Z,83.14
2023-02-14T06:39:16.589Z,83.14
2023-02-14T06:41:29.174Z,83.09
2023-02-14T06:43:41.715Z,83.23
2023-02-14T06:45:54.309Z,83.18
2023-02-14T06:48:06.994Z,83.03
2023-02-14T06:50:19.704Z,83.01
2023-02-14T06:52:33.312Z,83.00
2023-02-14T06:54:45.936Z,83.10
2023-02-14T06:56:58.546Z,82.98
2023-02-14T06:59:11.169Z,83.11
2023-02-14T07:01:23.797Z,83.01
2023-02-14T07:03:36.419Z,83.07
2023-02-14T07:05:49.056Z,82.94
2023-02-14T07:08:01.844Z,82.89
2023-02-14T07:10:15.184Z,82.81
2023-02-14T07:12:27.755Z,82.91
2023-02-14T07:14:40.268Z,82.92
2023-02-14T07:16:53.192Z,82.84
2023-02-14T07:19:05.827Z,82.86
2023-02-14T07:21:18.486Z,82.72
2023-02-14T07:23:31.047Z,82.85
2023-02-14T07:25:43.633Z,82.96
2023-02-14T07:27:56.680Z,82.64
2023-02-14T07:30:11.057Z,82.93
2023-02-14T07:32:24.032Z,82.60
2023-02-14T07:34:36.666Z,82.68
2023-02-14T07:36:49.192Z,82.70
2023-02-14T07:39:01.781Z,82.67
2023-02-14T07:41:14.348Z,82.53
2023-02-14T07:43:27.280Z,82.61
2023-02-14T07:45:39.832Z,82.70
2023-02-14T07:47:54.531Z,82.52
2023-02-14T07:50:08.095Z,82.46
2023-02-14T07:52:20.628Z,82.77
2023-02-14T07:54:33.190Z,82.69
2023-02-14T07:56:45.732Z,82.57
2023-02-14T07:58:58.294Z,82.44
2023-02-14T08:01:10.855Z,82.46
2023-02-14T08:03:23.401Z,82.20
2023-02-14T08:05:36.094Z,82.30
2023-02-14T08:07:48.874Z,82.27
2023-02-14T08:10:01.676Z,82.30
2023-02-14T08:12:32.936Z,82.18
2023-02-14T08:14:45.710Z,82.48
2023-02-14T08:16:58.205Z,82.33
2023-02-14T08:19:10.971Z,82.25
2023-02-14T08:21:23.541Z,82.11
2023-02-14T08:23:37.185Z,82.00
2023-02-14T08:25:51.075Z,81.81
2023-02-14T08:28:04.761Z,81.69
2023-02-14T08:30:18.308Z,81.54
2023-02-14T08:32:31.603Z,81.50
2023-02-14T08:34:44.236Z,81.48
2023-02-14T08:36:56.767Z,81.44
2023-02-14T08:39:14.182Z,81.41
2023-02-14T08:41:29.853Z,81.50
2023-02-14T08:43:45.194Z,81.39
2023-02-14T08:45:58.122Z,81.47
2023-02-14T08:48:12.500Z,81.57
2023-02-14T08:50:25.053Z,81.31
2023-02-14T08:52:39.814Z,81.20
2023-02-14T08:54:52.414Z,81.21
2023-02-14T08:57:05.152Z,81.10
2023-02-14T08:59:17.948Z,80.86
2023-02-14T09:01:30.534Z,80.74
2023-02-14T09:03:44.295Z,80.69
2023-02-14T09:05:56.828Z,80.55
2023-02-14T09:08:09.355Z,80.45
2023-02-14T09:10:22.709Z,80.55
2023-02-14T09:12:35.282Z,80.59
2023-02-14T09:14:47.844Z,80.61
2023-02-14T09:17:01.458Z,80.20
2023-02-14T09:19:14.749Z,79.67
2023-02-14T09:21:28.310Z,79.59
2023-02-14T09:23:41.543Z,79.60
2023-02-14T09:26:02.238Z,79.83
2023-02-14T09:28:14.733Z,79.98
2023-02-14T09:30:27.489Z,79.42
2023-02-14T09:32:40.075Z,79.40
2023-02-14T09:34:52.755Z,79.29
2023-02-14T09:37:24.106Z,79.26
2023-02-14T09:39:38.343Z,79.05
2023-02-14T09:42:28.374Z,78.83
2023-02-14T09:44:51.656Z,78.96
2023-02-14T09:47:16.425Z,78.98
2023-02-14T09:49:33.623Z,78.99
2023-02-14T09:51:51.331Z,78.43
2023-02-14T09:54:12.409Z,78.26
2023-02-14T09:56:42.706Z,78.24
2023-02-14T09:59:27.352Z,78.15
2023-02-14T10:01:43.462Z,78.24
2023-02-14T10:04:04.710Z,78.46
2023-02-14T10:06:34.071Z,78.43
2023-02-14T10:09:12.563Z,78.33
2023-02-14T10:11:25.168Z,77.84
2023-02-14T10:14:01.876Z,77.92
2023-02-14T10:16:36.672Z,77.65
2023-02-14T10:18:56.149Z,77.69
2023-02-14T10:21:15.547Z,77.82
2023-02-14T10:23:37.769Z,77.66
2023-02-14T10:26:03.467Z,77.50
2023-02-14T10:28:24.474Z,77.22
2023-02-14T10:30:39.757Z,77.18
2023-02-14T10:33:06.347Z,77.18
2023-02-14T10:35:30.262Z,77.44
2023-02-14T10:38:01.205Z,77.29
2023-02-14T10:40:44.096Z,76.93
2023-02-14T10:43:04.989Z,76.84
2023-02-14T10:45:45.378Z,76.89
2023-02-14T10:48:16.648Z,76.99
2023-02-14T10:50:49.604Z,77.15
2023-02-14T10:53:18.851Z,76.83
2023-02-14T10:55:57.488Z,76.60
2023-02-14T10:58:15.770Z,76.33
2023-02-14T11:00:33.766Z,76.37
2023-02-14T11:02:50.311Z,76.28
2023-02-14T11:05:04.568Z,76.36
2023-02-14T11:07:20.226Z,76.04
2023-02-14T11:09:32.804Z,75.66
2023-02-14T11:11:56.852Z,75.34
2023-02-14T11:16:39.967Z,75.10
2023-02-14T11:19:09.441Z,74.86
2023-02-14T11:21:24.361Z,74.43
2023-02-14T11:23:45.367Z,74.30
2023-02-14T11:26:00.181Z,74.54
2023-02-14T11:28:16.967Z,74.68
2023-02-14T11:30:40.906Z,74.43
2023-02-14T11:32:56.271Z,74.48
2023-02-14T11:35:20.496Z,74.75
2023-02-14T11:37:44.376Z,74.51
2023-02-14T11:40:00.130Z,74.43
2023-02-14T11:42:13.962Z,74.15
2023-02-14T11:44:29.784Z,74.09
2023-02-14T11:46:52.808Z,73.75
2023-02-14T11:49:24.242Z,74.01
2023-02-14T11:51:41.765Z,74.56
2023-02-14T11:54:00.539Z,74.89
2023-02-14T11:56:18.040Z,74.19
2023-02-14T11:58:36.796Z,73.06
2023-02-14T12:00:54.107Z,72.49
2023-02-14T12:03:06.911Z,72.62
2023-02-14T12:05:27.306Z,72.71
2023-02-14T12:07:45.584Z,72.85
2023-02-14T12:10:15.474Z,72.77
2023-02-14T12:12:28.750Z,72.76
2023-02-14T12:14:41.501Z,72.55
2023-02-14T12:17:04.596Z,72.20
2023-02-14T12:19:19.939Z,72.05
2023-02-14T12:21:54.484Z,71.58
2023-02-14T12:24:29.408Z,71.53
2023-02-14T12:26:49.281Z,71.43
2023-02-14T12:29:14.293Z,71.07
2023-02-14T12:31:27.269Z,71.15
2023-02-14T12:33:40.698Z,71.17
2023-02-14T12:36:03.211Z,71.09
2023-02-14T12:38:28.568Z,71.08
2023-02-14T12:41:12.354Z,71.09
2023-02-14T12:43:40.171Z,70.68
2023-02-14T12:46:01.854Z,70.64
2023-02-14T12:48:36.218Z,70.89
2023-02-14T12:51:10.026Z,71.06
2023-02-14T12:53:53.020Z,71.02
2023-02-14T12:56:42.102Z,70.75
2023-02-14T12:59:04.625Z,70.92
2023-02-14T13:01:28.291Z,70.72
2023-02-14T13:04:02.807Z,70.89
2023-02-14T13:06:27.947Z,70.46
2023-02-14T13:09:14.281Z,69.97
2023-02-14T13:11:39.509Z,70.10
2023-02-14T13:14:04.675Z,70.28
2023-02-14T13:16:45.056Z,70.02
2023-02-14T13:19:38.430Z,70.07
2023-02-14T13:21:51.670Z,70.30
2023-02-14T13:24:18.848Z,69.76
2023-02-14T13:26:36.977Z,69.27
2023-02-14T13:28:53.124Z,68.92
2023-02-14T13:31:06.538Z,68.92
2023-02-14T13:33:26.438Z,68.78
2023-02-14T13:35:40.754Z,68.90
2023-02-14T13:38:00.363Z,68.56
2023-02-14T13:40:20.708Z,68.60
2023-02-14T13:42:51.692Z,68.80
2023-02-14T13:45:04.396Z,69.02
2023-02-14T13:47:25.968Z,68.98
2023-02-14T13:49:46.142Z,69.17
2023-02-14T13:52:03.921Z,69.04
2023-02-14T13:54:22.698Z,69.28
2023-02-14T13:56:35.583Z,69.13
2023-02-14T13:58:49.484Z,68.70
2023-02-14T14:01:42.309Z,68.66
2023-02-14T14:03:58.709Z,68.75
2023-02-14T14:06:13.309Z,68.92
2023-02-14T14:08:30.667Z,69.24
2023-02-14T14:10:47.398Z,69.49
2023-02-14T14:13:00.159Z,69.48
2023-02-14T14:15:16.122Z,69.39
2023-02-14T14:17:28.733Z,69.44
2023-02-14T14:19:41.989Z,69.38
2023-02-14T14:22:07.208Z,69.47
2023-02-14T14:24:36.371Z,69.80
2023-02-14T14:27:04.025Z,70.08
2023-02-14T14:29:30.595Z,70.13
2023-02-14T14:31:43.418Z,70.23
2023-02-14T14:34:00.816Z,70.31
2023-02-14T14:36:23.137Z,70.41
2023-02-14T14:38:47.880Z,70.32
2023-02-14T14:41:01.977Z,70.61
2023-02-14T14:43:22.042Z,70.70
2023-02-14T14:45:34.593Z,70.98
2023-02-14T14:47:48.706Z,71.19
2023-02-14T14:50:07.498Z,71.24
2023-02-14T14:52:33.913Z,71.55
2023-02-14T14:54:46.555Z,71.53
2023-02-14T14:57:02.450Z,71.79
2023-02-14T14:59:28.089Z,71.67
2023-02-14T15:01:40.647Z,71.41
2023-02-14T15:03:53.250Z,71.75
2023-02-14T15:06:20.017Z,71.72
2023-02-14T15:08:32.792Z,71.98
2023-02-14T15:10:58.494Z,72.23
2023-02-14T15:13:32.438Z,72.27
2023-02-14T15:15:50.990Z,72.19
2023-02-14T15:18:07.589Z,71.98
2023-02-14T15:20:23.394Z,71.92
2023-02-14T15:22:45.509Z,71.87
2023-02-14T15:24:58.630Z,72.05
2023-02-14T15:27:20.949Z,72.31
2023-02-14T15:29:33.505Z,72.24
2023-02-14T15:31:46.422Z,72.31
2023-02-14T15:34:01.238Z,72.16
2023-02-14T15:36:21.220Z,72.25
2023-02-14T15:38:39.831Z,72.19
2023-02-14T15:40:54.535Z,72.06
2023-02-14T15:43:19.452Z,71.96
2023-02-14T15:45:32.570Z,72.16
2023-02-14T15:47:48.848Z,72.31
2023-02-14T15:50:02.702Z,72.47
2023-02-14T15:52:16.199Z,72.37
2023-02-14T15:54:36.729Z,72.52
2023-02-14T15:56:52.795Z,72.27
2023-02-14T15:59:19.868Z,72.31
2023-02-14T16:01:35.037Z,72.11
2023-02-14T16:03:52.096Z,72.21
2023-02-14T16:06:04.905Z,72.50
2023-02-14T16:08:32.898Z,72.96
2023-02-14T16:11:14.447Z,73.20
2023-02-14T16:13:36.161Z,72.95
2023-02-14T16:16:04.179Z,73.02
2023-02-14T16:18:42.454Z,72.90
2023-02-14T16:20:55.015Z,72.98
2023-02-14T16:23:23.827Z,72.92
2023-02-14T16:25:36.425Z,72.90
2023-02-14T16:27:49.351Z,73.12
2023-02-14T16:30:01.950Z,73.24
2023-02-14T16:32:21.853Z,73.22
2023-02-14T16:34:34.939Z,73.09
2023-02-14T16:36:47.672Z,72.91
2023-02-14T16:39:04.994Z,72.86
2023-02-14T16:41:24.615Z,73.03
2023-02-14T16:43:38.163Z,72.89
2023-02-14T16:45:50.741Z,72.91
2023-02-14T16:48:03.425Z,72.76
2023-02-14T16:50:16.509Z,72.68
2023-02-14T16:52:29.550Z,72.90
2023-02-14T16:54:42.284Z,73.01
2023-02-14T16:57:05.030Z,72.90
2023-02-14T16:59:17.561Z,73.22
2023-02-14T17:01:30.257Z,73.08
2023-02-14T17:03:43.481Z,73.03
2023-02-14T17:05:58.050Z,73.04
2023-02-14T17:08:13.258Z,73.21
2023-02-14T17:10:28.005Z,73.21
2023-02-14T17:12:43.326Z,73.25
2023-02-14T17:15:00.755Z,73.08
2023-02-14T17:17:14.310Z,72.81
2023-02-14T17:19:27.015Z,72.85
2023-02-14T17:21:40.277Z,72.81
2023-02-14T17:23:53.398Z,72.95
2023-02-14T17:26:06.360Z,73.05
2023-02-14T17:28:18.896Z,73.32
2023-02-14T17:30:31.547Z,73.34
2023-02-14T17:32:44.140Z,73.46
2023-02-14T17:34:57.015Z,73.27
2023-02-14T17:37:09.772Z,73.34
2023-02-14T17:39:22.272Z,73.37
2023-02-14T17:41:35.229Z,73.35
2023-02-14T17:43:49.014Z,73.28
2023-02-14T17:46:04.701Z,73.44
2023-02-14T17:48:17.348Z,73.70
2023-02-14T17:50:29.905Z,73.82
2023-02-14T17:52:42.652Z,73.66
2023-02-14T17:54:55.239Z,73.66
2023-02-14T17:57:07.800Z,73.72
2023-02-14T17:59:20.429Z,73.40
2023-02-14T18:01:34.510Z,73.47
2023-02-14T18:03:47.538Z,73.35
2023-02-14T18:06:01.683Z,73.24
2023-02-14T18:08:14.283Z,73.29
2023-02-14T18:10:26.882Z,73.47
2023-02-14T18:12:41.073Z,73.54
2023-02-14T18:14:55.162Z,73.40
2023-02-14T18:17:07.807Z,73.41
2023-02-14T18:19:20.391Z,73.25
2023-02-14T18:21:35.546Z,73.37
2023-02-14T18:23:48.537Z,73.47
2023-02-14T18:26:05.003Z,73.59
2023-02-14T18:28:18.086Z,73.48
2023-02-14T18:30:30.843Z,73.48
2023-02-14T18:32:43.441Z,73.49
2023-02-14T18:34:56.093Z,73.46
2023-02-14T18:37:08.728Z,73.47
2023-02-14T18:39:21.534Z,73.44
2023-02-14T18:41:34.622Z,73.59
2023-02-14T18:43:51.092Z,73.72
2023-02-14T18:46:05.621Z,73.81
2023-02-14T18:48:18.279Z,73.92
2023-02-14T18:50:31.692Z,73.95
2023-02-14T18:52:44.507Z,73.98
2023-02-14T18:54:59.446Z,73.84
2023-02-14T18:57:12.315Z,74.02
2023-02-14T18:59:25.004Z,74.27
2023-02-14T19:01:42.146Z,74.37
2023-02-14T19:03:54.930Z,74.31
2023-02-14T19:06:08.530Z,74.47
2023-02-14T19:08:21.017Z,74.42
2023-02-14T19:10:37.579Z,74.52
2023-02-14T19:12:50.168Z,74.61
2023-02-14T19:15:03.591Z,74.72
2023-02-14T19:17:17.094Z,74.60
2023-02-14T19:19:30.952Z,74.57
2023-02-14T19:21:43.542Z,74.72
2023-02-14T19:23:57.032Z,74.81
2023-02-14T19:26:15.319Z,74.94
2023-02-14T19:28:28.202Z,75.17
2023-02-14T19:30:41.158Z,75.18
2023-02-14T19:32:53.773Z,75.21
2023-02-14T19:35:06.794Z,75.18
2023-02-14T19:37:19.590Z,75.18
2023-02-14T19:39:32.289Z,75.36
2023-02-14T19:41:46.724Z,75.43
2023-02-14T19:44:00.975Z,75.44
2023-02-14T19:46:15.271Z,75.52
2023-02-14T19:48:27.997Z,75.72
2023-02-14T19:50:40.541Z,75.79
2023-02-14T19:52:53.333Z,75.94
2023-02-14T19:55:07.582Z,75.90
2023-02-14T19:57:20.433Z,75.98
2023-02-14T19:59:33.270Z,76.07
2023-02-14T20:01:48.545Z,76.18
2023-02-14T20:04:01.315Z,76.26
2023-02-14T20:06:13.834Z,76.36
2023-02-14T20:08:26.691Z,76.35
2023-02-14T20:10:39.434Z,76.41
2023-02-14T20:12:52.090Z,76.52
2023-02-14T20:15:05.943Z,76.45
2023-02-14T20:17:18.704Z,76.77
2023-02-14T20:19:34.393Z,76.81
2023-02-14T20:21:49.379Z,76.88
2023-02-14T20:24:03.598Z,76.89
2023-02-14T20:26:17.055Z,77.04
2023-02-14T20:28:29.727Z,77.23
2023-02-14T20:30:42.459Z,77.36
2023-02-14T20:32:55.201Z,77.55
2023-02-14T20:35:08.004Z,77.70
2023-02-14T20:37:20.532Z,77.78
2023-02-14T20:39:35.025Z,78.07
2023-02-14T20:41:49.901Z,78.04
2023-02-14T20:44:08.010Z,78.22
2023-02-14T20:46:22.763Z,78.58
2023-02-14T20:48:35.541Z,78.64
2023-02-14T20:50:48.120Z,78.64
2023-02-14T20:53:01.172Z,78.78
2023-02-14T20:55:13.970Z,78.96
2023-02-14T20:57:26.623Z,79.22
2023-02-14T20:59:44.508Z,79.28
2023-02-14T21:01:58.923Z,79.23
2023-02-14T21:04:11.530Z,79.40
2023-02-14T21:06:27.097Z,79.72
2023-02-14T21:08:42.238Z,79.67
2023-02-14T21:10:54.938Z,80.22
2023-02-14T21:13:07.623Z,80.34
2023-02-14T21:15:20.732Z,80.26
2023-02-14T21:17:33.892Z,80.36
2023-02-14T21:19:46.691Z,80.61
2023-02-14T21:21:59.383Z,81.07
2023-02-14T21:24:15.883Z,81.31
2023-02-14T21:26:29.131Z,81.37
2023-02-14T21:28:41.964Z,81.45
2023-02-14T21:31:04.523Z,81.84
2023-02-14T21:33:17.224Z,82.01
2023-02-14T21:35:30.342Z,82.06
2023-02-14T21:37:43.541Z,82.22
2023-02-14T21:39:56.293Z,82.54
2023-02-14T21:42:11.631Z,82.36
2023-02-14T21:44:42.918Z,82.83
2023-02-14T21:46:55.635Z,82.84
2023-02-14T21:49:26.926Z,82.92
2023-02-14T21:51:40.033Z,82.98
2023-02-14T21:53:53.017Z,83.28
2023-02-14T21:56:09.568Z,83.17
2023-02-14T21:58:22.129Z,83.38
2023-02-14T22:00:34.716Z,83.60
2023-02-14T22:02:48.591Z,83.86
2023-02-14T22:05:01.307Z,83.65
2023-02-14T22:07:13.971Z,83.92
2023-02-14T22:09:26.499Z,83.86
2023-02-14T22:11:40.022Z,84.41
2023-02-14T22:13:52.772Z,84.24
2023-02-14T22:16:12.054Z,84.57
2023-02-14T22:18:24.736Z,84.47
2023-02-14T22:20:37.297Z,84.10
2023-02-14T22:22:49.820Z,83.97
2023-02-14T22:25:02.339Z,84.59
2023-02-14T22:27:16.133Z,84.40
2023-02-14T22:29:29.457Z,84.53
2023-02-14T22:31:43.355Z,84.41
2023-02-14T22:33:56.221Z,85.05
2023-02-14T22:36:09.427Z,84.97
2023-02-14T22:38:22.000Z,84.92
2023-02-14T22:40:34.707Z,85.47
2023-02-14T22:42:47.502Z,85.56
2023-02-14T22:45:00.441Z,85.53
2023-02-14T22:47:13.349Z,85.52
2023-02-14T22:49:26.008Z,85.65
2023-02-14T22:51:40.599Z,85.91
2023-02-14T22:53:55.689Z,86.25
2023-02-14T22:56:13.568Z,85.98
2023-02-14T22:58:26.526Z,86.08
2023-02-14T23:00:39.261Z,86.59
2023-02-14T23:02:51.989Z,86.63
2023-02-14T23:05:07.366Z,86.89
2023-02-14T23:07:20.081Z,87.02
2023-02-14T23:09:32.955Z,87.16
2023-02-14T23:11:46.820Z,87.23
2023-02-14T23:14:18.442Z,87.37
2023-02-14T23:16:50.117Z,87.45
2023-02-14T23:19:21.498Z,87.68
2023-02-14T23:21:52.768Z,87.65
2023-02-14T23:24:05.739Z,87.48
2023-02-14T23:26:21.048Z,87.93
2023-02-14T23:28:33.922Z,87.98
2023-02-14T23:30:46.517Z,88.01
2023-02-14T23:33:02.098Z,88.22
2023-02-14T23:35:17.684Z,87.67
2023-02-14T23:37:32.149Z,88.09
2023-02-14T23:39:44.770Z,88.01
2023-02-14T23:41:57.301Z,87.87
2023-02-14T23:44:09.986Z,88.23
2023-02-14T23:46:22.851Z,88.23
2023-02-14T23:48:36.245Z,88.27
2023-02-14T23:50:48.782Z,88.00
2023-02-14T23:53:01.332Z,88.06
2023-02-14T23:55:14.116Z,88.20
2023-02-14T23:57:26.776Z,88.43
2023-02-14T23:59:39.322Z,88.30
